Time;durP1;ratioP1;P1;durP2;ratioP2;P2;SDS_P1;SDS_P2;PMS_P1;PMS_P2;Temp;Humidity;BMP_temperature;BMP_pressure;BME280_temperature;BME280_humidity;BME280_pressure;Samples;Min_cycle;Max_cycle;Signal;HPM_P1;HPM_P2
2023/01/29 00:00:02;;;;;;;0.40;0.40;;;;;;;3.71;77.52;95291.00;5092925;28;20463;-60
2023/01/29 00:02:32;;;;;;;0.40;0.30;;;;;;;3.61;77.65;95295.19;5092444;28;20431;-60
2023/01/29 00:05:00;;;;;;;0.60;0.30;;;;;;;3.44;76.73;95275.91;5092714;28;20898;-60
2023/01/29 00:07:48;;;;;;;0.60;0.37;;;;;;;3.49;77.13;95282.06;5092152;28;20447;-60
2023/01/29 00:10:17;;;;;;;0.30;0.20;;;;;;;3.65;77.73;95280.59;5091940;28;20424;-60
2023/01/29 00:12:45;;;;;;;0.90;0.80;;;;;;;3.55;79.76;95303.94;5093006;28;20435;-60
2023/01/29 00:15:14;;;;;;;2.30;0.83;;;;;;;3.33;82.63;95295.81;5092681;28;20950;-59
2023/01/29 00:17:43;;;;;;;0.47;0.47;;;;;;;3.24;83.44;95291.13;5092878;28;20510;-59
2023/01/29 00:20:14;;;;;;;0.50;0.47;;;;;;;3.09;85.29;95299.38;5092442;28;20540;-59
2023/01/29 00:22:43;;;;;;;0.67;0.60;;;;;;;3.21;87.19;95298.41;5092723;28;20789;-60
2023/01/29 00:25:11;;;;;;;0.63;0.63;;;;;;;3.26;88.04;95303.00;5092460;28;20811;-59
2023/01/29 00:27:39;;;;;;;0.73;0.67;;;;;;;3.19;88.98;95313.53;5092679;28;20436;-60
2023/01/29 00:30:11;;;;;;;1.43;1.33;;;;;;;3.01;91.09;95310.19;5092803;28;20827;-59
2023/01/29 00:32:40;;;;;;;0.60;0.60;;;;;;;2.56;96.67;95315.78;5091678;28;20435;-60
2023/01/29 00:35:10;;;;;;;2.27;0.93;;;;;;;2.43;100.00;95304.66;5091769;28;20483;-60
2023/01/29 00:37:39;;;;;;;3.43;1.50;;;;;;;2.50;100.00;95321.09;5092176;28;20523;-60
2023/01/29 00:40:08;;;;;;;0.50;0.50;;;;;;;2.49;97.43;95315.06;5092163;28;20440;-60
2023/01/29 00:45:23;;;;;;;0.47;0.40;;;;;;;2.48;95.61;95321.28;5092190;28;20459;-60
2023/01/29 00:47:52;;;;;;;0.87;0.87;;;;;;;2.52;96.12;95309.41;5092022;28;20488;-60
2023/01/29 00:50:22;;;;;;;0.40;0.30;;;;;;;2.59;97.51;95298.84;5092427;28;20418;-60
2023/01/29 00:52:50;;;;;;;0.40;0.40;;;;;;;2.75;96.96;95302.69;5092028;28;20511;-60
2023/01/29 00:55:19;;;;;;;4.77;0.97;;;;;;;2.79;95.88;95307.25;5091789;28;21032;-60
2023/01/29 00:57:47;;;;;;;0.60;0.50;;;;;;;3.03;95.46;95305.53;5091937;28;20431;-59
2023/01/29 01:00:18;;;;;;;0.67;0.67;;;;;;;3.06;93.76;95292.00;5092243;28;20453;-59
2023/01/29 01:05:35;;;;;;;0.30;0.30;;;;;;;2.90;91.94;95305.69;5092160;28;20465;-59
2023/01/29 01:10:19;;;;;;;0.30;0.20;;;;;;;2.74;94.31;95314.16;5091849;28;20433;-59
2023/01/29 01:10:58;;;;;;;1.70;0.30;;;;;;;2.43;97.43;95321.16;5091734;28;20938;-59
2023/01/29 01:13:27;;;;;;;0.30;0.30;;;;;;;2.45;98.67;95320.94;5091374;28;20780;-60
2023/01/29 01:15:55;;;;;;;0.40;0.40;;;;;;;2.30;100.00;95318.69;5091636;28;20434;-60
2023/01/29 01:18:23;;;;;;;1.27;1.17;;;;;;;2.35;100.00;95324.06;5091527;28;20781;-60
2023/01/29 01:20:58;;;;;;;0.93;0.93;;;;;;;2.23;100.00;95283.97;5091587;28;20478;-60
2023/01/29 01:23:27;;;;;;;1.30;1.20;;;;;;;2.29;100.00;95309.25;5091851;28;20498;-60
2023/01/29 01:25:55;;;;;;;0.40;0.30;;;;;;;2.50;100.00;95319.25;5091434;28;20466;-60
2023/01/29 01:28:23;;;;;;;5.10;0.87;;;;;;;2.50;100.00;95321.09;5091715;28;21005;-61
2023/01/29 01:30:51;;;;;;;2.80;0.63;;;;;;;2.34;100.00;95301.56;5091969;28;20420;-60
2023/01/29 01:33:20;;;;;;;0.67;0.60;;;;;;;2.49;100.00;95322.91;5091825;28;20436;-60
2023/01/29 01:35:49;;;;;;;1.17;1.17;;;;;;;2.57;100.00;95319.19;5091449;28;20486;-60
2023/01/29 01:38:18;;;;;;;0.70;0.70;;;;;;;2.47;100.00;95314.47;5091609;28;20435;-60
2023/01/29 01:40:47;;;;;;;0.40;0.23;;;;;;;2.56;99.31;95317.59;5091913;28;20446;-60
2023/01/29 01:43:15;;;;;;;0.40;0.40;;;;;;;2.68;96.72;95305.38;5091635;28;20452;-60
2023/01/29 01:45:45;;;;;;;0.40;0.30;;;;;;;2.49;93.25;95259.31;5091259;28;20461;-59
2023/01/29 01:48:19;;;;;;;0.60;0.50;;;;;;;2.90;91.79;95316.16;5091296;28;20465;-60
2023/01/29 01:50:51;;;;;;;0.50;0.40;;;;;;;2.86;88.04;95310.56;5091323;28;20804;-59
2023/01/29 01:53:24;;;;;;;0.30;0.30;;;;;;;2.67;86.78;95267.16;5091223;28;20433;-59
2023/01/29 01:55:58;;;;;;;1.07;0.30;;;;;;;2.89;87.18;95320.59;5091535;28;20429;-59
2023/01/29 01:58:32;;;;;;;0.30;0.27;;;;;;;2.92;88.33;95316.75;5090898;28;20441;-59
2023/01/29 02:01:01;;;;;;;0.50;0.50;;;;;;;2.84;88.21;95312.63;5091057;28;20439;-60
2023/01/29 02:11:58;;;;;;;0.50;0.30;;;;;;;3.12;83.97;95298.94;5091019;28;20449;-61
2023/01/29 02:14:27;;;;;;;0.30;0.20;;;;;;;3.05;83.79;95304.28;5091481;28;20438;-61
2023/01/29 02:16:55;;;;;;;0.30;0.20;;;;;;;3.02;83.58;95317.00;5091000;28;20514;-61
2023/01/29 02:19:38;;;;;;;0.30;0.20;;;;;;;2.62;83.51;95256.53;5091060;28;20431;-61
2023/01/29 02:22:24;;;;;;;0.40;0.30;;;;;;;3.12;83.40;95331.16;5091002;28;20435;-60
2023/01/29 02:25:25;;;;;;;0.30;0.20;;;;;;;2.98;83.44;95328.97;5092885;28;20501;-60
2023/01/29 02:28:22;;;;;;;0.40;0.30;;;;;;;2.91;82.57;95275.91;5094896;28;20471;-60
2023/01/29 02:30:59;;;;;;;0.37;0.30;;;;;;;2.92;82.36;95303.66;5094263;28;20953;-60
2023/01/29 02:33:41;;;;;;;1.47;1.33;;;;;;;3.04;82.14;95323.63;5093652;28;20509;-61
2023/01/29 02:36:19;;;;;;;0.37;0.30;;;;;;;3.05;83.39;95332.28;5094226;28;20481;-60
2023/01/29 02:38:57;;;;;;;3.27;0.83;;;;;;;2.85;85.21;95337.78;5094440;28;20422;-60
2023/01/29 02:41:29;;;;;;;0.30;0.30;;;;;;;3.11;85.79;95339.25;5094475;28;20430;-60
2023/01/29 02:44:04;;;;;;;0.67;0.60;;;;;;;2.93;86.48;95340.09;5094391;28;20485;-60
2023/01/29 02:46:37;;;;;;;0.60;0.60;;;;;;;3.06;87.17;95342.53;5094249;28;20978;-60
2023/01/29 02:49:15;;;;;;;0.30;0.30;;;;;;;2.48;85.29;95244.63;5094420;28;20795;-60
2023/01/29 02:51:48;;;;;;;0.40;0.30;;;;;;;3.01;84.75;95341.59;5094283;28;20431;-60
2023/01/29 02:54:21;;;;;;;0.30;0.20;;;;;;;2.73;84.17;95341.34;5093517;28;20499;-60
2023/01/29 02:56:56;;;;;;;0.30;0.20;;;;;;;2.87;83.92;95317.41;5094351;28;20431;-60
2023/01/29 02:59:31;;;;;;;0.60;0.50;;;;;;;2.68;83.92;95317.66;5093879;28;20434;-60
2023/01/29 03:02:05;;;;;;;0.30;0.20;;;;;;;2.65;83.32;95316.28;5093884;28;20955;-60
2023/01/29 03:04:41;;;;;;;0.30;0.20;;;;;;;2.64;83.66;95343.47;5093849;28;20997;-60
2023/01/29 03:07:41;;;;;;;0.70;0.70;;;;;;;2.67;85.14;95350.88;5093852;28;20466;-60
2023/01/29 03:10:06;;;;;;;3.00;0.37;;;;;;;2.63;84.82;95343.69;5093566;28;20804;-60
2023/01/29 03:12:38;;;;;;;0.90;0.67;;;;;;;2.78;88.34;95354.59;5093887;28;20421;-60
2023/01/29 03:15:15;;;;;;;0.30;0.30;;;;;;;2.66;91.22;95356.34;5093933;28;20968;-60
2023/01/29 03:17:50;;;;;;;0.40;0.40;;;;;;;2.60;92.46;95341.50;5092602;28;20431;-60
2023/01/29 03:20:25;;;;;;;0.47;0.47;;;;;;;1.92;95.73;95312.84;5093214;28;20934;-60
2023/01/29 03:23:00;;;;;;;0.30;0.20;;;;;;;2.34;96.78;95353.84;5093273;28;20417;-60
2023/01/29 03:34:00;;;;;;;0.40;0.30;;;;;;;3.02;92.51;95357.09;5092878;28;20428;-60
2023/01/29 03:36:36;;;;;;;0.50;0.50;;;;;;;2.72;93.00;95371.94;5091611;28;20474;-60
2023/01/29 03:39:06;;;;;;;0.30;0.30;;;;;;;2.67;96.26;95365.78;5093158;28;20428;-60
2023/01/29 03:41:38;;;;;;;1.23;1.23;;;;;;;2.67;97.12;95373.63;5092731;28;20428;-60
2023/01/29 03:44:15;;;;;;;7.23;0.37;;;;;;;2.93;96.40;95375.94;5093370;28;20425;-60
2023/01/29 03:46:51;;;;;;;0.40;0.40;;;;;;;3.28;91.85;95376.09;5092371;28;20508;-60
2023/01/29 03:49:29;;;;;;;0.40;0.30;;;;;;;3.33;90.11;95365.75;5093037;28;20426;-60
2023/01/29 03:52:02;;;;;;;0.30;0.20;;;;;;;3.56;85.44;95358.75;5092843;28;20438;-60
2023/01/29 03:54:38;;;;;;;0.30;0.20;;;;;;;3.46;83.07;95365.56;5092832;28;20924;-60
2023/01/29 03:57:15;;;;;;;0.40;0.30;;;;;;;3.33;81.18;95363.94;5093004;28;20647;-60
2023/01/29 03:59:53;;;;;;;0.30;0.30;;;;;;;3.75;81.26;95355.03;5092764;28;20430;-60
2023/01/29 04:02:27;;;;;;;0.47;0.47;;;;;;;3.71;79.81;95374.06;5092900;28;20438;-60
2023/01/29 04:05:02;;;;;;;0.30;0.30;;;;;;;3.55;79.96;95370.25;5092866;28;20427;-60
2023/01/29 04:07:32;;;;;;;0.30;0.23;;;;;;;3.27;79.27;95361.38;5092574;28;20518;-60
2023/01/29 04:10:05;;;;;;;0.40;0.40;;;;;;;3.47;79.64;95378.44;5092148;28;20432;-61
2023/01/29 04:12:40;;;;;;;0.30;0.20;;;;;;;3.57;79.75;95378.69;5092634;28;20472;-60
2023/01/29 04:15:14;;;;;;;0.30;0.20;;;;;;;3.61;79.00;95377.22;5092666;28;20879;-61
2023/01/29 04:17:48;;;;;;;1.50;0.40;;;;;;;3.60;78.52;95378.25;5092000;28;20951;-60
2023/01/29 04:20:17;;;;;;;0.50;0.50;;;;;;;3.51;78.56;95391.91;5092025;28;20427;-60
2023/01/29 04:22:48;;;;;;;0.30;0.30;;;;;;;3.72;77.71;95389.53;5092185;28;20466;-60
2023/01/29 04:25:25;;;;;;;0.30;0.30;;;;;;;3.49;79.04;95384.25;5092308;28;20432;-60
2023/01/29 04:28:04;;;;;;;0.77;0.20;;;;;;;3.74;77.85;95366.53;5092238;28;20457;-60
2023/01/29 04:30:41;;;;;;;0.30;0.20;;;;;;;3.79;77.58;95385.00;5092252;28;20461;-60
2023/01/29 04:33:26;;;;;;;0.30;0.30;;;;;;;4.03;77.05;95375.34;5092236;28;20430;-60
2023/01/29 04:36:17;;;;;;;0.30;0.20;;;;;;;3.83;76.27;95380.91;5091850;28;20471;-60
2023/01/29 04:39:00;;;;;;;1.17;0.30;;;;;;;3.69;76.63;95384.75;5092091;28;20427;-60
2023/01/29 04:41:34;;;;;;;0.30;0.20;;;;;;;3.57;76.94;95386.53;5092037;28;20426;-60
2023/01/29 04:44:11;;;;;;;0.30;0.30;;;;;;;3.75;77.31;95389.09;5091969;28;20427;-60
2023/01/29 04:46:47;;;;;;;0.30;0.30;;;;;;;3.97;76.85;95391.19;5091284;28;20506;-60
2023/01/29 04:49:29;;;;;;;0.63;0.40;;;;;;;3.85;76.53;95391.97;5092029;28;20459;-60
2023/01/29 04:52:05;;;;;;;0.37;0.37;;;;;;;4.07;76.00;95396.69;5092004;28;20959;-60
2023/01/29 04:54:44;;;;;;;0.57;0.57;;;;;;;4.15;75.60;95401.59;5092114;28;20431;-63
2023/01/29 04:57:18;;;;;;;0.30;0.20;;;;;;;3.94;75.50;95396.88;5091947;28;20443;-60
2023/01/29 04:59:51;;;;;;;0.50;0.50;;;;;;;3.69;75.65;95404.94;5091971;28;20986;-60
2023/01/29 05:02:22;;;;;;;0.73;0.73;;;;;;;3.80;76.13;95407.56;5092614;28;20865;-60
2023/01/29 05:04:54;;;;;;;0.50;0.50;;;;;;;3.71;76.22;95408.94;5092090;28;20522;-60
2023/01/29 05:07:24;;;;;;;0.57;0.40;;;;;;;3.90;76.24;95401.00;5091824;28;20476;-60
2023/01/29 05:09:53;;;;;;;0.93;0.93;;;;;;;4.04;75.39;95394.50;5091465;28;20432;-59
2023/01/29 05:12:25;;;;;;;0.77;0.77;;;;;;;4.16;75.36;95406.63;5091280;28;20438;-60
2023/01/29 05:14:56;;;;;;;0.30;0.27;;;;;;;4.14;75.35;95405.25;5091917;28;20459;-60
2023/01/29 05:17:24;;;;;;;0.40;0.40;;;;;;;4.12;75.29;95405.47;5091678;28;20446;-60
2023/01/29 05:19:56;;;;;;;0.30;0.20;;;;;;;4.43;75.27;95412.19;5091664;28;20431;-60
2023/01/29 05:22:25;;;;;;;0.40;0.30;;;;;;;4.53;74.56;95411.66;5091512;28;20979;-60
2023/01/29 05:24:53;;;;;;;1.17;0.60;;;;;;;4.54;74.38;95414.03;5090909;28;20473;-57
2023/01/29 05:30:15;;;;;;;0.30;0.20;;;;;;;4.16;74.55;95424.97;5091408;28;20464;-58
2023/01/29 05:32:44;;;;;;;0.30;0.20;;;;;;;4.34;74.33;95418.81;5091662;28;20957;-58
2023/01/29 05:35:14;;;;;;;0.87;0.87;;;;;;;4.18;74.59;95415.03;5091376;28;20468;-58
2023/01/29 05:37:42;;;;;;;0.30;0.20;;;;;;;3.60;75.27;95424.59;5091329;28;20467;-58
2023/01/29 05:40:11;;;;;;;0.70;0.70;;;;;;;3.49;75.82;95428.78;5091340;28;20423;-58
2023/01/29 05:42:39;;;;;;;0.73;0.73;;;;;;;3.21;76.63;95433.81;5091527;28;20457;-59
2023/01/29 05:45:09;;;;;;;0.50;0.50;;;;;;;3.04;77.31;95430.16;5091374;28;20432;-59
2023/01/29 05:47:37;;;;;;;0.30;0.20;;;;;;;3.18;78.13;95437.66;5091719;28;20548;-59
2023/01/29 05:50:07;;;;;;;0.30;0.20;;;;;;;3.14;78.13;95439.09;5090653;28;20810;-59
2023/01/29 05:52:36;;;;;;;0.40;0.30;;;;;;;3.18;78.25;95426.38;5091138;28;20995;-59
2023/01/29 05:55:06;;;;;;;0.40;0.40;;;;;;;3.34;78.46;95441.47;5091136;28;20436;-59
2023/01/29 05:57:34;;;;;;;0.40;0.40;;;;;;;2.99;78.06;95396.78;5091051;28;20457;-59
2023/01/29 06:00:03;;;;;;;0.50;0.50;;;;;;;3.44;78.78;95444.38;5093204;28;20518;-58
2023/01/29 06:02:31;;;;;;;0.50;0.50;;;;;;;3.24;78.41;95454.28;5094842;28;20435;-59
2023/01/29 06:04:59;;;;;;;5.40;0.60;;;;;;;3.37;78.49;95454.13;5094390;28;20502;-59
2023/01/29 06:07:28;;;;;;;0.40;0.40;;;;;;;2.66;79.17;95364.19;5094427;28;20501;-59
2023/01/29 06:09:57;;;;;;;1.23;1.23;;;;;;;3.13;79.86;95452.44;5094698;28;20510;-58
2023/01/29 06:12:26;;;;;;;0.87;0.80;;;;;;;3.24;79.54;95464.78;5094829;28;20430;-58
2023/01/29 06:14:55;;;;;;;2.73;1.03;;;;;;;3.50;79.35;95461.03;5094623;28;21078;-58
2023/01/29 06:17:23;;;;;;;0.60;0.60;;;;;;;3.74;78.65;95463.50;5094831;28;20459;-58
2023/01/29 06:19:51;;;;;;;0.93;0.93;;;;;;;3.04;78.72;95410.03;5094559;28;20435;-59
2023/01/29 06:22:20;;;;;;;0.40;0.40;;;;;;;3.76;79.66;95466.72;5094132;28;20430;-58
2023/01/29 06:24:48;;;;;;;0.80;0.80;;;;;;;3.90;79.45;95469.16;5094923;28;20756;-59
2023/01/29 06:27:18;;;;;;;1.20;1.13;;;;;;;3.42;78.16;95414.97;5095097;28;20431;-59
2023/01/29 06:29:46;;;;;;;1.73;1.63;;;;;;;3.36;77.55;95394.91;5094750;28;20436;-58
2023/01/29 06:32:14;;;;;;;7.03;1.83;;;;;;;3.79;78.40;95478.59;5094664;28;20466;-59
2023/01/29 06:34:43;;;;;;;0.63;0.63;;;;;;;4.19;78.30;95477.00;5094415;28;20439;-59
2023/01/29 06:37:11;;;;;;;2.03;1.93;;;;;;;3.71;76.84;95444.81;5094294;28;20482;-59
2023/01/29 06:39:39;;;;;;;0.60;0.40;;;;;;;3.77;77.41;95478.78;5094590;28;20515;-58
2023/01/29 06:42:08;;;;;;;1.07;0.97;;;;;;;3.44;77.83;95483.66;5094076;28;21002;-59
2023/01/29 06:44:38;;;;;;;0.40;0.40;;;;;;;3.35;77.67;95492.84;5094153;28;20443;-59
2023/01/29 06:47:06;;;;;;;1.67;1.57;;;;;;;3.19;79.04;95491.63;5094343;28;20436;-59
2023/01/29 06:49:35;;;;;;;0.93;0.93;;;;;;;3.18;78.77;95481.38;5094310;28;20462;-58
2023/01/29 06:52:03;;;;;;;0.93;0.50;;;;;;;3.55;78.59;95493.41;5094022;28;20951;-58
2023/01/29 06:54:33;;;;;;;0.83;0.40;;;;;;;3.80;78.29;95498.53;5093993;28;20940;-58
2023/01/29 06:57:01;;;;;;;0.57;0.57;;;;;;;3.60;77.77;95503.22;5093591;28;20435;-59
2023/01/29 06:59:30;;;;;;;0.30;0.30;;;;;;;3.70;78.18;95506.91;5093592;28;20446;-58
2023/01/29 07:01:59;;;;;;;0.97;0.87;;;;;;;3.78;79.63;95511.06;5093797;28;20526;-58
2023/01/29 07:04:27;;;;;;;1.83;1.73;;;;;;;4.30;80.96;95506.91;5093849;28;20462;-58
2023/01/29 07:06:56;;;;;;;0.60;0.60;;;;;;;4.19;77.89;95502.41;5093706;28;20443;-58
2023/01/29 07:09:24;;;;;;;0.33;0.33;;;;;;;4.66;77.08;95506.69;5093569;28;20474;-58
2023/01/29 07:11:52;;;;;;;1.10;1.10;;;;;;;4.17;76.13;95496.59;5092246;28;20786;-59
2023/01/29 07:14:20;;;;;;;0.70;0.40;;;;;;;4.23;76.69;95508.78;5093844;28;20443;-59
2023/01/29 07:16:49;;;;;;;0.57;0.57;;;;;;;4.16;76.64;95510.72;5093429;28;20484;-59
2023/01/29 07:19:18;;;;;;;0.50;0.50;;;;;;;4.17;77.13;95507.91;5093411;28;20940;-59
2023/01/29 07:21:47;;;;;;;1.90;1.10;;;;;;;4.31;76.50;95514.53;5092448;28;20445;-59
2023/01/29 07:24:15;;;;;;;1.23;1.17;;;;;;;4.36;77.46;95508.59;5093356;28;20437;-59
2023/01/29 07:26:44;;;;;;;1.13;0.77;;;;;;;4.08;76.26;95503.97;5093067;28;20432;-58
2023/01/29 07:29:12;;;;;;;0.30;0.20;;;;;;;4.21;77.48;95524.78;5092622;28;20482;-58
2023/01/29 07:31:40;;;;;;;0.30;0.30;;;;;;;4.45;76.87;95518.53;5093060;28;20527;-58
2023/01/29 07:34:09;;;;;;;0.60;0.60;;;;;;;4.53;75.83;95524.50;5092411;28;20427;-58
2023/01/29 07:36:39;;;;;;;1.37;0.73;;;;;;;4.54;75.34;95533.97;5093037;28;20547;-59
2023/01/29 07:39:07;;;;;;;0.30;0.30;;;;;;;4.69;75.06;95522.00;5092873;28;20960;-59
2023/01/29 07:41:35;;;;;;;0.70;0.70;;;;;;;4.68;75.46;95525.63;5093358;28;20817;-58
2023/01/29 07:44:04;;;;;;;0.50;0.40;;;;;;;4.72;75.56;95531.25;5093318;28;20511;-59
2023/01/29 07:46:32;;;;;;;0.50;0.30;;;;;;;4.57;75.15;95475.78;5093354;28;20876;-61
2023/01/29 07:49:00;;;;;;;1.90;0.40;;;;;;;5.11;75.20;95530.56;5093066;28;20499;-60
2023/01/29 07:51:28;;;;;;;0.53;0.47;;;;;;;4.57;73.94;95475.78;5092033;28;20424;-59
2023/01/29 07:53:58;;;;;;;1.40;1.30;;;;;;;4.41;74.62;95446.56;5091432;28;20457;-61
2023/01/29 07:56:26;;;;;;;0.33;0.30;;;;;;;4.85;74.82;95531.84;5091978;28;20436;-60
2023/01/29 07:58:55;;;;;;;0.40;0.30;;;;;;;5.13;76.64;95528.53;5091390;28;20425;-60
2023/01/29 08:01:23;;;;;;;0.87;0.87;;;;;;;5.48;73.95;95516.13;5091927;28;20425;-59
2023/01/29 08:03:51;;;;;;;0.50;0.50;;;;;;;5.64;75.27;95531.16;5092406;28;20431;-60
2023/01/29 08:06:20;;;;;;;0.47;0.47;;;;;;;5.19;73.77;95532.84;5092104;28;21143;-59
2023/01/29 08:08:48;;;;;;;0.30;0.20;;;;;;;5.37;73.42;95539.78;5092544;28;20476;-59
2023/01/29 08:11:17;;;;;;;0.90;0.90;;;;;;;5.30;73.54;95536.50;5092307;28;20795;-59
2023/01/29 08:13:46;;;;;;;3.30;0.87;;;;;;;5.58;73.11;95544.44;5092864;28;20447;-59
2023/01/29 08:16:14;;;;;;;0.63;0.40;;;;;;;5.02;73.35;95542.44;5092470;28;20428;-59
2023/01/29 08:18:46;;;;;;;2.50;0.97;;;;;;;5.17;72.69;95544.59;5092505;28;20429;-59
2023/01/29 08:21:15;;;;;;;0.30;0.23;;;;;;;5.41;72.62;95533.84;5092468;28;20424;-59
2023/01/29 08:23:43;;;;;;;0.30;0.20;;;;;;;5.35;73.17;95544.47;5091999;28;20519;-58
2023/01/29 08:26:11;;;;;;;1.00;0.93;;;;;;;5.31;73.16;95546.78;5092455;28;20417;-58
2023/01/29 08:28:41;;;;;;;0.57;0.30;;;;;;;5.71;72.14;95547.63;5092213;28;20502;-57
2023/01/29 08:31:14;;;;;;;0.30;0.30;;;;;;;5.61;71.11;95552.69;5092162;28;20504;-57
2023/01/29 08:33:43;;;;;;;0.60;0.50;;;;;;;5.87;70.80;95546.09;5092528;28;20458;-57
2023/01/29 08:36:11;;;;;;;0.53;0.53;;;;;;;6.13;70.95;95550.81;5092157;28;20469;-57
2023/01/29 08:38:39;;;;;;;0.40;0.40;;;;;;;6.46;68.89;95530.84;5092135;28;20511;-57
2023/01/29 08:41:08;;;;;;;0.50;0.50;;;;;;;6.85;68.71;95553.63;5092365;28;20510;-57
2023/01/29 08:43:37;;;;;;;0.87;0.60;;;;;;;6.59;68.50;95548.97;5092105;28;20816;-58
2023/01/29 08:46:07;;;;;;;0.50;0.50;;;;;;;7.07;69.58;95556.31;5092348;28;20421;-58
2023/01/29 08:48:36;;;;;;;0.30;0.20;;;;;;;7.41;67.89;95550.72;5091857;28;20422;-57
2023/01/29 08:51:04;;;;;;;0.43;0.43;;;;;;;7.29;65.86;95488.59;5092097;28;20447;-57
2023/01/29 08:53:33;;;;;;;0.97;0.40;;;;;;;8.01;64.71;95500.56;5092041;28;20547;-57
2023/01/29 08:56:02;;;;;;;0.30;0.20;;;;;;;8.77;63.04;95535.63;5091894;28;20428;-57
2023/01/29 08:58:30;;;;;;;2.87;0.40;;;;;;;8.96;59.65;95534.19;5092021;28;20509;-57
2023/01/29 09:01:08;;;;;;;0.87;0.53;;;;;;;8.95;59.07;95472.56;5091746;28;21009;-57
2023/01/29 09:03:39;;;;;;;0.50;0.40;;;;;;;9.12;59.19;95548.31;5092168;28;20813;-58
2023/01/29 09:06:10;;;;;;;0.40;0.40;;;;;;;9.61;58.89;95540.94;5092080;28;20438;-58
2023/01/29 09:08:39;;;;;;;0.40;0.30;;;;;;;9.87;57.78;95535.50;5091695;28;20835;-58
2023/01/29 09:11:08;;;;;;;0.70;0.67;;;;;;;9.83;58.85;95534.44;5091562;28;20805;-58
2023/01/29 09:13:36;;;;;;;1.67;1.57;;;;;;;10.06;57.74;95543.78;5090963;28;20434;-57
2023/01/29 09:16:05;;;;;;;0.70;0.70;;;;;;;10.14;57.17;95545.97;5090896;28;20420;-56
2023/01/29 09:18:36;;;;;;;0.87;0.87;;;;;;;10.10;58.14;95534.25;5091013;28;20472;-57
2023/01/29 09:21:05;;;;;;;0.40;0.40;;;;;;;9.43;59.48;95535.03;5091259;28;20553;-57
2023/01/29 09:23:33;;;;;;;3.63;1.17;;;;;;;9.64;58.44;95537.78;5091320;28;20459;-57
2023/01/29 09:26:02;;;;;;;0.60;0.60;;;;;;;9.70;56.99;95534.09;5091411;28;20421;-57
2023/01/29 09:28:30;;;;;;;0.90;0.40;;;;;;;9.76;57.23;95528.59;5091507;28;20457;-57
2023/01/29 09:31:01;;;;;;;0.53;0.50;;;;;;;10.00;57.09;95529.72;5091355;28;20468;-56
2023/01/29 09:33:31;;;;;;;1.37;0.80;;;;;;;9.63;57.28;95523.75;5091169;28;20416;-57
2023/01/29 09:36:03;;;;;;;0.40;0.40;;;;;;;9.11;60.66;95520.28;5095208;28;20472;-57
2023/01/29 09:38:31;;;;;;;0.80;0.80;;;;;;;8.86;60.47;95521.69;5095761;28;20446;-57
2023/01/29 09:41:06;;;;;;;0.40;0.33;;;;;;;8.78;60.20;95516.88;5095799;28;20806;-57
2023/01/29 09:43:45;;;;;;;1.43;0.40;;;;;;;8.97;60.54;95504.06;5095809;28;20447;-57
2023/01/29 09:46:20;;;;;;;0.93;0.93;;;;;;;8.38;60.90;95510.44;5095351;28;20813;-57
2023/01/29 09:48:57;;;;;;;0.30;0.30;;;;;;;8.59;59.89;95446.97;5095243;28;20798;-57
2023/01/29 09:51:32;;;;;;;0.83;0.83;;;;;;;8.40;60.11;95444.97;5095330;28;20453;-57
2023/01/29 09:54:12;;;;;;;1.13;1.13;;;;;;;8.52;60.79;95498.44;5095570;28;20427;-57
2023/01/29 09:56:42;;;;;;;0.53;0.53;;;;;;;8.44;61.71;95509.44;5094505;28;20452;-57
2023/01/29 09:59:13;;;;;;;0.77;0.50;;;;;;;8.65;61.06;95487.44;5094840;28;20452;-57
2023/01/29 10:01:50;;;;;;;1.00;0.80;;;;;;;8.85;60.30;95501.59;5095265;28;20461;-57
2023/01/29 10:04:43;;;;;;;0.83;0.83;;;;;;;9.96;59.07;95501.38;5095104;28;20456;-56
2023/01/29 10:07:40;;;;;;;0.57;0.57;;;;;;;10.39;55.58;95484.28;5095659;28;20424;-56
2023/01/29 10:10:22;;;;;;;0.50;0.50;;;;;;;10.41;56.03;95488.25;5092431;28;20515;-57
2023/01/29 10:13:03;;;;;;;0.90;0.70;;;;;;;10.82;55.12;95481.13;5095008;28;20425;-57
2023/01/29 10:15:44;;;;;;;0.50;0.50;;;;;;;11.47;53.54;95488.94;5094955;28;20429;-57
2023/01/29 10:18:46;;;;;;;1.10;1.00;;;;;;;11.20;53.27;95483.19;5095201;28;20856;-58
2023/01/29 10:21:26;;;;;;;0.90;0.80;;;;;;;11.47;53.27;95481.00;5092792;28;20875;-59
2023/01/29 10:24:07;;;;;;;1.07;1.07;;;;;;;10.51;53.95;95472.38;5095030;28;20873;-59
2023/01/29 10:26:39;;;;;;;0.50;0.40;;;;;;;11.39;55.36;95462.16;5095013;28;20425;-59
2023/01/29 10:29:11;;;;;;;1.37;0.50;;;;;;;11.87;53.15;95472.09;5094507;28;20845;-59
2023/01/29 10:31:40;;;;;;;0.40;0.40;;;;;;;11.90;51.45;95452.16;5094551;28;20511;-59
2023/01/29 10:34:14;;;;;;;0.80;0.60;;;;;;;11.52;52.87;95466.09;5094931;28;20435;-60
2023/01/29 10:36:47;;;;;;;0.70;0.70;;;;;;;12.28;51.12;95453.25;5094592;28;20941;-61
2023/01/29 10:39:18;;;;;;;1.80;0.40;;;;;;;13.78;47.71;95440.41;5094476;28;20988;-67
2023/01/29 10:42:13;;;;;;;2.10;1.20;;;;;;;14.27;48.39;95436.56;5094763;28;20429;-70
2023/01/29 10:45:00;;;;;;;0.40;0.40;;;;;;;15.85;44.58;95431.66;5094503;28;20830;-69
2023/01/29 10:48:05;;;;;;;0.40;0.40;;;;;;;14.81;45.85;95434.13;5094305;28;20432;-67
2023/01/29 10:50:47;;;;;;;0.73;0.73;;;;;;;14.22;45.23;95346.00;5076884;28;20574;-66
2023/01/29 10:53:38;;;;;;;0.50;0.40;;;;;;;14.97;46.33;95424.78;5094220;28;20421;-64
2023/01/29 10:56:25;;;;;;;0.73;0.73;;;;;;;14.26;45.55;95416.28;5094196;28;20425;-63
2023/01/29 10:58:56;;;;;;;2.73;0.70;;;;;;;14.49;44.46;95415.44;5094206;28;20429;-64
2023/01/29 11:01:25;;;;;;;0.60;0.60;;;;;;;14.63;44.83;95421.59;5094369;28;20496;-65
2023/01/29 11:04:00;;;;;;;0.67;0.67;;;;;;;14.10;45.42;95410.38;5094124;28;20557;-69
2023/01/29 11:06:31;;;;;;;0.80;0.80;;;;;;;13.00;48.16;95415.19;5094069;28;21033;-71
2023/01/29 11:09:07;;;;;;;0.50;0.50;;;;;;;12.86;47.62;95406.25;5093840;28;20461;-70
2023/01/29 11:11:43;;;;;;;0.43;0.37;;;;;;;12.69;48.78;95407.50;5093969;28;20464;-65
2023/01/29 11:14:16;;;;;;;0.40;0.30;;;;;;;13.34;47.16;95358.13;5094025;28;20852;-64
2023/01/29 11:16:48;;;;;;;1.37;0.40;;;;;;;13.07;48.68;95381.88;5093587;28;20433;-62
2023/01/29 11:19:17;;;;;;;0.40;0.30;;;;;;;13.46;47.24;95392.31;5093911;28;20836;-61
2023/01/29 11:21:56;;;;;;;1.13;1.03;;;;;;;12.59;47.59;95398.81;5093733;28;20437;-61
2023/01/29 11:24:25;;;;;;;0.80;0.73;;;;;;;13.06;47.85;95398.91;5093517;28;20417;-61
2023/01/29 11:26:58;;;;;;;1.60;1.60;;;;;;;11.18;49.87;95403.06;5093508;28;20455;-61
2023/01/29 11:29:39;;;;;;;0.43;0.43;;;;;;;11.49;49.27;95401.09;5093723;28;20420;-60
2023/01/29 11:32:11;;;;;;;0.40;0.40;;;;;;;12.40;48.22;95390.72;5093246;28;20851;-60
2023/01/29 11:34:58;;;;;;;1.00;0.67;;;;;;;12.71;47.33;95384.06;5093057;28;20516;-59
2023/01/29 11:37:33;;;;;;;0.40;0.30;;;;;;;13.90;46.39;95382.16;5093225;28;20439;-60
2023/01/29 11:40:01;;;;;;;0.40;0.30;;;;;;;14.34;44.64;95383.69;5093599;28;20816;-64
2023/01/29 11:42:33;;;;;;;0.40;0.40;;;;;;;14.41;43.88;95312.09;5093350;28;20512;-71
2023/01/29 11:45:01;;;;;;;7.73;1.17;;;;;;;14.69;44.95;95372.44;5093006;28;20424;-65
2023/01/29 11:47:30;;;;;;;0.80;0.80;;;;;;;14.67;43.05;95371.94;5093104;28;20421;-62
2023/01/29 11:50:02;;;;;;;0.80;0.80;;;;;;;14.66;43.33;95359.66;5092590;28;20431;-62
2023/01/29 11:52:37;;;;;;;2.00;1.50;;;;;;;15.83;43.18;95364.34;5093230;28;20942;-60
2023/01/29 11:55:14;;;;;;;1.50;0.80;;;;;;;15.18;42.44;95351.22;5093211;28;20842;-59
2023/01/29 11:57:49;;;;;;;0.50;0.50;;;;;;;15.42;42.48;95360.91;5092066;28;20434;-58
2023/01/29 12:00:22;;;;;;;0.87;0.87;;;;;;;16.15;42.19;95356.13;5092632;28;20421;-58
2023/01/29 12:02:55;;;;;;;0.57;0.40;;;;;;;15.05;41.80;95353.91;5092850;28;20508;-57
2023/01/29 12:05:25;;;;;;;0.40;0.30;;;;;;;15.18;41.37;95303.16;5092860;28;20434;-58
2023/01/29 12:07:56;;;;;;;2.30;0.40;;;;;;;15.16;41.67;95347.25;5092965;28;20479;-58
2023/01/29 12:10:34;;;;;;;0.70;0.40;;;;;;;16.43;42.23;95341.56;5092652;28;20474;-57
2023/01/29 12:13:21;;;;;;;4.53;0.83;;;;;;;16.28;41.49;95341.91;5092583;28;20425;-57
2023/01/29 12:15:49;;;;;;;0.40;0.40;;;;;;;16.62;41.41;95322.63;5092683;28;20443;-57
2023/01/29 12:18:26;;;;;;;0.50;0.40;;;;;;;14.74;41.96;95345.66;5092409;28;20425;-59
2023/01/29 12:20:58;;;;;;;0.50;0.40;;;;;;;14.70;42.92;95288.63;5092815;28;20428;-59
2023/01/29 12:23:36;;;;;;;0.40;0.30;;;;;;;14.20;43.08;95334.81;5092446;28;20421;-62
2023/01/29 12:26:09;;;;;;;1.00;0.97;;;;;;;12.48;45.97;95349.44;5092563;28;20420;-65
2023/01/29 12:28:49;;;;;;;0.53;0.50;;;;;;;13.72;44.14;95345.66;5092805;28;20588;-64